sensor_id;sensor_type;location;lat;lon;timestamp;temperature;humidity
17240;DHT22;9943;54.378;18.604;2022-07-29T00:10:57;15.20;99.90
17240;DHT22;9943;54.378;18.604;2022-07-29T00:23:29;13.80;99.90
17240;DHT22;9943;54.378;18.604;2022-07-29T00:26:00;13.70;99.90
17240;DHT22;9943;54.378;18.604;2022-07-29T00:28:31;13.70;99.90
17240;DHT22;9943;54.378;18.604;2022-07-29T00:31:00;13.80;99.90
17240;DHT22;9943;54.378;18.604;2022-07-29T00:33:39;13.20;99.90
17240;DHT22;9943;54.378;18.604;2022-07-29T00:36:12;13.60;99.90
17240;DHT22;9943;54.378;18.604;2022-07-29T00:38:39;13.60;99.90
17240;DHT22;9943;54.378;18.604;2022-07-29T00:46:21;14.50;99.90
17240;DHT22;9943;54.378;18.604;2022-07-29T00:49:06;13.70;99.90
17240;DHT22;9943;54.378;18.604;2022-07-29T00:51:41;13.90;99.90
17240;DHT22;9943;54.378;18.604;2022-07-29T00:54:11;13.70;99.90
17240;DHT22;9943;54.378;18.604;2022-07-29T00:56:43;14.00;99.90
17240;DHT22;9943;54.378;18.604;2022-07-29T01:04:18;13.60;99.90
17240;DHT22;9943;54.378;18.604;2022-07-29T01:07:10;13.60;99.90
17240;DHT22;9943;54.378;18.604;2022-07-29T01:09:53;14.10;99.90
17240;DHT22;9943;54.378;18.604;2022-07-29T01:12:25;13.90;99.90
17240;DHT22;9943;54.378;18.604;2022-07-29T01:14:55;13.90;99.90
17240;DHT22;9943;54.378;18.604;2022-07-29T01:17:28;13.70;99.90
17240;DHT22;9943;54.378;18.604;2022-07-29T01:20:05;13.40;99.90
17240;DHT22;9943;54.378;18.604;2022-07-29T01:22:58;13.50;99.90
17240;DHT22;9943;54.378;18.604;2022-07-29T01:25:48;13.60;99.90
17240;DHT22;9943;54.378;18.604;2022-07-29T01:28:43;13.90;99.90
17240;DHT22;9943;54.378;18.604;2022-07-29T01:31:16;13.70;99.90
17240;DHT22;9943;54.378;18.604;2022-07-29T01:33:54;13.50;99.90
17240;DHT22;9943;54.378;18.604;2022-07-29T01:36:32;13.60;99.90
17240;DHT22;9943;54.378;18.604;2022-07-29T01:39:10;13.60;99.90
17240;DHT22;9943;54.378;18.604;2022-07-29T01:41:54;13.80;99.90
17240;DHT22;9943;54.378;18.604;2022-07-29T01:44:31;13.70;99.90
17240;DHT22;9943;54.378;18.604;2022-07-29T01:47:09;13.60;99.90
17240;DHT22;9943;54.378;18.604;2022-07-29T01:49:47;13.70;99.90
17240;DHT22;9943;54.378;18.604;2022-07-29T01:52:21;13.80;99.90
17240;DHT22;9943;54.378;18.604;2022-07-29T01:54:54;13.70;99.90
17240;DHT22;9943;54.378;18.604;2022-07-29T01:57:27;14.00;99.90
17240;DHT22;9943;54.378;18.604;2022-07-29T01:59:58;13.70;99.90
17240;DHT22;9943;54.378;18.604;2022-07-29T02:02:30;13.10;99.90
17240;DHT22;9943;54.378;18.604;2022-07-29T02:05:03;13.80;99.90
17240;DHT22;9943;54.378;18.604;2022-07-29T02:07:33;13.70;99.90
17240;DHT22;9943;54.378;18.604;2022-07-29T02:10:08;13.60;99.90
17240;DHT22;9943;54.378;18.604;2022-07-29T02:12:38;13.70;99.90
17240;DHT22;9943;54.378;18.604;2022-07-29T02:15:16;13.70;99.90
17240;DHT22;9943;54.378;18.604;2022-07-29T02:17:53;13.80;99.90
17240;DHT22;9943;54.378;18.604;2022-07-29T02:20:26;13.70;99.90
17240;DHT22;9943;54.378;18.604;2022-07-29T02:22:54;13.50;99.90
17240;DHT22;9943;54.378;18.604;2022-07-29T02:25:34;13.50;99.90
17240;DHT22;9943;54.378;18.604;2022-07-29T02:28:08;13.80;99.90
17240;DHT22;9943;54.378;18.604;2022-07-29T02:30:42;13.50;99.90
17240;DHT22;9943;54.378;18.604;2022-07-29T02:33:15;13.70;99.90
17240;DHT22;9943;54.378;18.604;2022-07-29T02:35:47;13.50;99.90
17240;DHT22;9943;54.378;18.604;2022-07-29T02:38:21;13.50;99.90
17240;DHT22;9943;54.378;18.604;2022-07-29T02:41:15;13.00;99.90
17240;DHT22;9943;54.378;18.604;2022-07-29T02:43:44;13.40;99.90
17240;DHT22;9943;54.378;18.604;2022-07-29T02:46:27;13.60;99.90
17240;DHT22;9943;54.378;18.604;2022-07-29T02:49:01;13.40;99.90
17240;DHT22;9943;54.378;18.604;2022-07-29T02:51:36;13.50;99.90
17240;DHT22;9943;54.378;18.604;2022-07-29T02:54:10;13.40;99.90
17240;DHT22;9943;54.378;18.604;2022-07-29T02:56:44;13.60;99.90
17240;DHT22;9943;54.378;18.604;2022-07-29T02:59:22;14.30;99.90
17240;DHT22;9943;54.378;18.604;2022-07-29T03:01:58;13.50;99.90
17240;DHT22;9943;54.378;18.604;2022-07-29T03:04:28;13.40;99.90
17240;DHT22;9943;54.378;18.604;2022-07-29T03:07:00;13.60;99.90
17240;DHT22;9943;54.378;18.604;2022-07-29T03:09:29;13.40;99.90
17240;DHT22;9943;54.378;18.604;2022-07-29T03:12:02;13.50;99.90
17240;DHT22;9943;54.378;18.604;2022-07-29T03:14:35;13.50;99.90
17240;DHT22;9943;54.378;18.604;2022-07-29T03:17:06;13.50;99.90
17240;DHT22;9943;54.378;18.604;2022-07-29T03:19:35;13.50;99.90
17240;DHT22;9943;54.378;18.604;2022-07-29T03:22:05;13.50;99.90
17240;DHT22;9943;54.378;18.604;2022-07-29T03:24:36;13.60;99.90
17240;DHT22;9943;54.378;18.604;2022-07-29T03:27:04;13.50;99.90
17240;DHT22;9943;54.378;18.604;2022-07-29T03:29:36;13.80;99.90
17240;DHT22;9943;54.378;18.604;2022-07-29T03:32:07;13.80;99.90
17240;DHT22;9943;54.378;18.604;2022-07-29T03:34:38;13.60;99.90
17240;DHT22;9943;54.378;18.604;2022-07-29T03:37:07;13.60;99.90
17240;DHT22;9943;54.378;18.604;2022-07-29T03:39:41;13.90;99.90
17240;DHT22;9943;54.378;18.604;2022-07-29T03:42:12;13.90;99.90
17240;DHT22;9943;54.378;18.604;2022-07-29T03:44:47;14.10;99.90
17240;DHT22;9943;54.378;18.604;2022-07-29T03:47:24;14.00;99.90
17240;DHT22;9943;54.378;18.604;2022-07-29T03:50:00;14.50;99.90
17240;DHT22;9943;54.378;18.604;2022-07-29T03:52:30;14.20;99.90
17240;DHT22;9943;54.378;18.604;2022-07-29T03:54:58;14.30;99.90
17240;DHT22;9943;54.378;18.604;2022-07-29T03:57:30;14.20;99.90
17240;DHT22;9943;54.378;18.604;2022-07-29T04:00:03;14.60;99.90
17240;DHT22;9943;54.378;18.604;2022-07-29T04:02:41;14.60;99.90
17240;DHT22;9943;54.378;18.604;2022-07-29T04:05:15;14.20;99.90
17240;DHT22;9943;54.378;18.604;2022-07-29T04:07:47;15.00;99.90
17240;DHT22;9943;54.378;18.604;2022-07-29T04:10:30;15.00;99.90
17240;DHT22;9943;54.378;18.604;2022-07-29T04:13:01;15.30;99.90
17240;DHT22;9943;54.378;18.604;2022-07-29T04:23:01;15.20;99.90
17240;DHT22;9943;54.378;18.604;2022-07-29T04:25:29;15.80;99.90
17240;DHT22;9943;54.378;18.604;2022-07-29T04:45:30;15.80;99.90
17240;DHT22;9943;54.378;18.604;2022-07-29T10:46:27;16.50;99.90
